createdAt,value
2018-06-24T00:00:38.042Z,24.60
2018-06-24T00:05:43.128Z,24.60
2018-06-24T00:10:48.311Z,24.50
2018-06-24T00:15:53.569Z,24.60
2018-06-24T00:20:58.770Z,24.50
2018-06-24T00:26:03.787Z,24.50
2018-06-24T00:31:09.043Z,24.50
2018-06-24T00:36:14.174Z,24.60
2018-06-24T00:41:19.309Z,24.50
2018-06-24T00:46:24.338Z,24.50
2018-06-24T00:51:29.507Z,24.50
2018-06-24T00:56:34.659Z,24.50
2018-06-24T01:01:39.801Z,24.50
2018-06-24T01:06:46.050Z,24.50
2018-06-24T01:11:51.279Z,24.50
2018-06-24T01:16:56.390Z,24.50
2018-06-24T01:22:01.540Z,24.50
2018-06-24T01:27:06.392Z,24.50
2018-06-24T01:32:11.540Z,24.50
2018-06-24T01:37:16.683Z,24.50
2018-06-24T01:42:21.640Z,24.50
2018-06-24T01:47:26.876Z,24.50
2018-06-24T01:52:31.866Z,24.50
2018-06-24T01:57:36.991Z,24.50
2018-06-24T02:02:42.110Z,24.50
2018-06-24T02:07:47.245Z,24.50
2018-06-24T02:12:52.399Z,24.50
2018-06-24T02:17:57.498Z,24.50
2018-06-24T02:23:02.452Z,24.50
2018-06-24T02:28:07.392Z,24.50
2018-06-24T02:33:13.000Z,24.50
2018-06-24T02:38:18.105Z,24.50
2018-06-24T02:43:23.040Z,24.50
2018-06-24T02:48:28.267Z,24.50
2018-06-24T02:53:33.653Z,24.50
2018-06-24T02:58:38.981Z,24.40
2018-06-24T03:03:44.222Z,24.50
2018-06-24T03:08:49.586Z,24.50
2018-06-24T03:13:54.622Z,24.50
2018-06-24T03:18:59.738Z,24.40
2018-06-24T03:24:04.705Z,24.50
2018-06-24T03:29:09.694Z,24.40
2018-06-24T03:34:14.885Z,24.40
2018-06-24T03:39:19.988Z,24.40
2018-06-24T03:44:25.150Z,24.40
2018-06-24T03:49:30.306Z,24.40
2018-06-24T03:54:35.444Z,24.40
2018-06-24T03:59:40.823Z,24.40
2018-06-24T04:04:46.059Z,24.40
2018-06-24T04:09:51.048Z,24.40
2018-06-24T04:14:56.374Z,24.40
2018-06-24T04:20:01.414Z,24.40
2018-06-24T04:25:06.588Z,24.40
2018-06-24T04:30:11.513Z,24.40
2018-06-24T04:35:16.632Z,24.40
2018-06-24T04:40:21.578Z,24.40
2018-06-24T04:45:26.423Z,24.40
2018-06-24T04:50:31.575Z,24.40
2018-06-24T04:55:36.739Z,24.40
2018-06-24T05:00:41.768Z,24.40
2018-06-24T05:05:46.841Z,24.40
2018-06-24T05:10:51.864Z,24.30
2018-06-24T05:15:56.871Z,24.30
2018-06-24T05:21:02.093Z,24.40
2018-06-24T05:26:07.128Z,24.40
2018-06-24T05:31:12.304Z,24.30
2018-06-24T05:36:17.425Z,24.40
2018-06-24T05:41:22.501Z,24.40
2018-06-24T05:46:27.513Z,24.40
2018-06-24T05:51:32.632Z,24.40
2018-06-24T05:56:37.749Z,24.40
2018-06-24T06:01:42.788Z,24.30
2018-06-24T06:06:47.730Z,24.40
2018-06-24T06:11:52.922Z,24.30
2018-06-24T06:16:57.950Z,24.40
2018-06-24T06:22:03.098Z,24.40
2018-06-24T06:27:08.340Z,24.40
2018-06-24T06:32:13.505Z,24.40
2018-06-24T06:37:18.772Z,24.40
2018-06-24T06:42:23.992Z,24.40
2018-06-24T06:47:29.321Z,24.40
2018-06-24T06:52:34.319Z,24.40
2018-06-24T06:57:39.596Z,24.40
2018-06-24T07:02:44.732Z,24.40
2018-06-24T07:07:49.887Z,24.40
2018-06-24T07:12:55.123Z,24.40
2018-06-24T07:18:00.151Z,24.40
2018-06-24T07:23:05.197Z,24.40
2018-06-24T07:28:10.299Z,24.40
2018-06-24T07:33:16.005Z,24.40
2018-06-24T07:38:21.090Z,24.40
2018-06-24T07:43:26.045Z,24.40
2018-06-24T07:48:31.201Z,24.40
2018-06-24T07:53:36.386Z,24.50
2018-06-24T07:58:41.757Z,24.50
2018-06-24T08:03:47.134Z,24.50
2018-06-24T08:08:52.340Z,24.50
2018-06-24T08:13:57.491Z,24.40
2018-06-24T08:19:02.836Z,24.50
2018-06-24T08:24:07.846Z,24.50
2018-06-24T08:29:12.738Z,24.50
2018-06-24T08:34:17.884Z,24.60
2018-06-24T08:39:23.036Z,24.60
2018-06-24T08:44:28.236Z,24.60
2018-06-24T08:49:33.460Z,24.60
2018-06-24T08:54:38.894Z,24.70
2018-06-24T08:59:43.994Z,24.70
2018-06-24T09:04:49.107Z,24.70
2018-06-24T09:09:54.622Z,24.70
2018-06-24T09:14:59.742Z,24.70
2018-06-24T09:20:05.235Z,24.70
2018-06-24T09:25:10.433Z,24.70
2018-06-24T09:30:15.581Z,24.70
2018-06-24T09:35:20.617Z,24.70
2018-06-24T09:40:25.565Z,24.70
2018-06-24T09:45:30.514Z,24.70
2018-06-24T09:50:35.449Z,24.70
2018-06-24T09:55:40.486Z,24.70
2018-06-24T10:00:45.613Z,24.70
2018-06-24T10:05:50.849Z,24.70
2018-06-24T10:10:55.815Z,24.70
2018-06-24T10:16:01.182Z,24.80
2018-06-24T10:21:06.560Z,24.80
2018-06-24T10:26:11.652Z,24.80
2018-06-24T10:31:16.632Z,24.80
2018-06-24T10:36:21.557Z,24.80
2018-06-24T10:41:26.799Z,24.80
2018-06-24T10:46:32.065Z,24.80
2018-06-24T10:51:37.221Z,24.80
2018-06-24T10:56:42.649Z,24.80
2018-06-24T11:01:47.699Z,24.80
2018-06-24T11:06:52.688Z,24.80
2018-06-24T11:11:58.784Z,24.80
2018-06-24T11:17:03.886Z,24.90
2018-06-24T11:22:09.110Z,24.90
2018-06-24T11:27:14.349Z,24.90
2018-06-24T11:32:19.419Z,24.80
2018-06-24T11:37:24.746Z,24.80
2018-06-24T11:42:29.821Z,24.80
2018-06-24T11:47:35.050Z,24.80
2018-06-24T11:52:40.136Z,24.90
2018-06-24T11:57:45.135Z,24.80
2018-06-24T12:02:50.422Z,24.80
2018-06-24T12:07:55.428Z,24.80
2018-06-24T12:13:00.986Z,24.80
2018-06-24T12:18:06.048Z,24.80
2018-06-24T12:23:11.179Z,24.80
2018-06-24T12:28:16.334Z,24.80
2018-06-24T12:33:21.390Z,24.90
2018-06-24T12:38:26.515Z,24.90
2018-06-24T12:43:31.485Z,24.90
2018-06-24T12:48:36.658Z,24.90
2018-06-24T12:53:41.684Z,24.90
2018-06-24T12:58:47.012Z,24.90
2018-06-24T13:03:52.018Z,24.90
2018-06-24T13:08:57.143Z,24.90
2018-06-24T13:14:02.329Z,24.90
2018-06-24T13:19:07.518Z,24.90
2018-06-24T13:29:17.526Z,24.90
2018-06-24T13:34:22.956Z,24.90
2018-06-24T13:39:28.088Z,24.90
2018-06-24T13:44:33.114Z,24.90
2018-06-24T13:49:38.392Z,24.90
2018-06-24T13:54:43.404Z,24.90
2018-06-24T13:59:48.626Z,24.90
2018-06-24T14:04:53.713Z,24.90
2018-06-24T14:09:58.880Z,24.90
2018-06-24T14:15:04.094Z,24.90
2018-06-24T14:20:09.232Z,24.90
2018-06-24T14:25:14.730Z,24.90
2018-06-24T14:30:19.866Z,24.90
2018-06-24T14:35:25.113Z,24.90
2018-06-24T14:40:30.315Z,24.90
2018-06-24T14:45:35.505Z,24.90
2018-06-24T14:50:40.698Z,24.90
2018-06-24T14:55:45.642Z,24.90
2018-06-24T15:00:50.919Z,24.90
2018-06-24T15:05:56.104Z,24.90
2018-06-24T15:11:01.096Z,25.00
2018-06-24T15:16:07.378Z,25.00
2018-06-24T15:21:12.222Z,24.90
2018-06-24T15:26:17.179Z,24.90
2018-06-24T15:31:22.100Z,24.90
2018-06-24T15:36:27.070Z,24.90
2018-06-24T15:41:32.073Z,24.90
2018-06-24T15:46:37.537Z,24.90
2018-06-24T15:51:42.671Z,24.90
2018-06-24T15:56:47.944Z,25.00
2018-06-24T16:01:53.457Z,24.90
2018-06-24T16:06:58.504Z,24.90
2018-06-24T16:12:03.496Z,24.90
2018-06-24T16:17:08.507Z,24.90
2018-06-24T16:22:13.564Z,24.90
2018-06-24T16:27:18.664Z,24.90
2018-06-24T16:32:23.745Z,25.00
2018-06-24T16:37:29.755Z,24.90
2018-06-24T16:42:34.923Z,24.90
2018-06-24T16:47:40.180Z,24.90
2018-06-24T16:52:45.556Z,24.90
2018-06-24T16:57:51.862Z,24.90
2018-06-24T17:02:56.840Z,24.90
2018-06-24T17:08:02.924Z,24.90
2018-06-24T17:13:08.037Z,24.90
2018-06-24T17:18:13.166Z,24.90
2018-06-24T17:23:18.160Z,24.90
2018-06-24T17:28:23.531Z,24.90
2018-06-24T17:33:28.903Z,24.90
2018-06-24T17:38:34.281Z,24.90
2018-06-24T17:43:41.786Z,24.90
2018-06-24T17:48:46.773Z,24.90
2018-06-24T17:53:51.980Z,24.90
2018-06-24T17:58:57.070Z,24.90
2018-06-24T18:04:02.022Z,24.90
2018-06-24T18:09:09.398Z,24.90
2018-06-24T18:14:14.594Z,24.90
2018-06-24T18:19:19.878Z,24.80
2018-06-24T18:24:25.018Z,24.80
2018-06-24T18:29:31.452Z,24.80
2018-06-24T18:34:36.441Z,24.80
2018-06-24T18:39:41.787Z,24.80
2018-06-24T18:44:46.681Z,24.80
2018-06-24T18:49:51.738Z,24.70
2018-06-24T18:54:56.872Z,24.70
2018-06-24T19:00:02.317Z,24.70
2018-06-24T19:05:07.752Z,24.80
2018-06-24T19:10:12.891Z,24.80
2018-06-24T19:15:18.726Z,24.70
2018-06-24T19:20:23.726Z,24.70
2018-06-24T19:25:28.619Z,24.70
2018-06-24T19:30:33.636Z,24.70
2018-06-24T19:35:38.299Z,24.70
2018-06-24T19:40:43.533Z,24.70
2018-06-24T19:45:48.400Z,24.70
2018-06-24T19:50:54.524Z,24.70
2018-06-24T19:55:59.637Z,24.70
2018-06-24T20:01:04.702Z,24.70
2018-06-24T20:06:10.238Z,24.70
2018-06-24T20:11:15.415Z,24.70
2018-06-24T20:16:20.509Z,24.70
2018-06-24T20:21:25.508Z,24.70
2018-06-24T20:26:30.809Z,24.70
2018-06-24T20:31:36.419Z,24.70
2018-06-24T20:36:42.096Z,24.70
2018-06-24T20:41:47.093Z,24.70
2018-06-24T20:46:52.271Z,24.70
2018-06-24T20:51:57.460Z,24.60
2018-06-24T20:57:02.489Z,24.60
2018-06-24T21:02:07.654Z,24.60
2018-06-24T21:07:12.636Z,24.60
2018-06-24T21:12:17.590Z,24.70
2018-06-24T21:17:22.802Z,24.60
2018-06-24T21:22:27.973Z,24.60
2018-06-24T21:27:33.297Z,24.60
2018-06-24T21:32:38.516Z,24.60
2018-06-24T21:37:43.461Z,24.60
2018-06-24T21:42:48.436Z,24.60
2018-06-24T21:47:53.389Z,24.50
2018-06-24T21:52:58.574Z,24.50
2018-06-24T21:58:03.504Z,24.50
2018-06-24T22:03:08.505Z,24.50
2018-06-24T22:08:13.666Z,24.50
2018-06-24T22:13:18.802Z,24.50
2018-06-24T22:18:23.720Z,24.50
2018-06-24T22:23:28.740Z,24.60
2018-06-24T22:28:33.907Z,24.60
2018-06-24T22:33:39.021Z,24.50
2018-06-24T22:38:44.390Z,24.60
2018-06-24T22:43:49.583Z,24.50
2018-06-24T22:48:54.662Z,24.50
2018-06-24T22:53:59.826Z,24.50
2018-06-24T22:59:15.673Z,24.50
2018-06-24T23:04:20.752Z,24.50
2018-06-24T23:09:25.595Z,24.40
2018-06-24T23:14:30.696Z,24.50
2018-06-24T23:19:35.902Z,24.50
2018-06-24T23:24:40.981Z,24.50
2018-06-24T23:29:45.930Z,24.50
2018-06-24T23:34:51.071Z,24.50
2018-06-24T23:39:56.049Z,24.50
2018-06-24T23:45:01.323Z,24.50
2018-06-24T23:50:06.319Z,24.40
2018-06-24T23:55:11.415Z,24.50
